sensor_id;sensor_type;location;lat;lon;timestamp;temperature;humidity
9167;DHT22;4618;48.818;9.088;2023-04-01T00:00:56;8.30;1.00
9167;DHT22;4618;48.818;9.088;2023-04-01T00:03:23;8.40;1.00
9167;DHT22;4618;48.818;9.088;2023-04-01T00:05:49;8.40;1.00
9167;DHT22;4618;48.818;9.088;2023-04-01T00:08:16;8.50;1.00
9167;DHT22;4618;48.818;9.088;2023-04-01T00:10:42;8.50;1.00
9167;DHT22;4618;48.818;9.088;2023-04-01T00:13:08;8.60;1.00
9167;DHT22;4618;48.818;9.088;2023-04-01T00:15:34;8.50;1.00
9167;DHT22;4618;48.818;9.088;2023-04-01T00:17:59;8.60;1.00
9167;DHT22;4618;48.818;9.088;2023-04-01T00:20:26;8.60;1.00
9167;DHT22;4618;48.818;9.088;2023-04-01T00:22:52;8.60;1.00
9167;DHT22;4618;48.818;9.088;2023-04-01T00:25:18;8.60;1.00
9167;DHT22;4618;48.818;9.088;2023-04-01T00:27:44;8.50;1.00
9167;DHT22;4618;48.818;9.088;2023-04-01T00:30:10;8.60;1.00
9167;DHT22;4618;48.818;9.088;2023-04-01T00:32:36;8.60;1.00
9167;DHT22;4618;48.818;9.088;2023-04-01T00:35:02;8.50;1.00
9167;DHT22;4618;48.818;9.088;2023-04-01T00:37:28;8.60;1.00
9167;DHT22;4618;48.818;9.088;2023-04-01T00:39:55;8.50;1.00
9167;DHT22;4618;48.818;9.088;2023-04-01T00:42:20;8.60;1.00
9167;DHT22;4618;48.818;9.088;2023-04-01T00:44:53;8.60;99.90
9167;DHT22;4618;48.818;9.088;2023-04-01T00:47:20;8.60;99.90
9167;DHT22;4618;48.818;9.088;2023-04-01T00:49:49;8.70;99.90
9167;DHT22;4618;48.818;9.088;2023-04-01T00:52:20;8.70;99.90
9167;DHT22;4618;48.818;9.088;2023-04-01T00:54:50;8.70;1.00
9167;DHT22;4618;48.818;9.088;2023-04-01T00:57:25;8.60;99.90
9167;DHT22;4618;48.818;9.088;2023-04-01T00:59:54;8.60;99.90
9167;DHT22;4618;48.818;9.088;2023-04-01T01:02:20;8.70;99.90
9167;DHT22;4618;48.818;9.088;2023-04-01T01:04:46;8.80;99.90
9167;DHT22;4618;48.818;9.088;2023-04-01T01:10:17;8.80;99.90
9167;DHT22;4618;48.818;9.088;2023-04-01T01:13:40;8.60;1.00
9167;DHT22;4618;48.818;9.088;2023-04-01T01:16:15;8.60;1.00
9167;DHT22;4618;48.818;9.088;2023-04-01T01:26:59;8.70;1.00
9167;DHT22;4618;48.818;9.088;2023-04-01T01:38:07;8.80;1.00
9167;DHT22;4618;48.818;9.088;2023-04-01T01:40:36;8.80;1.00
9167;DHT22;4618;48.818;9.088;2023-04-01T01:43:05;8.60;99.90
9167;DHT22;4618;48.818;9.088;2023-04-01T01:45:35;8.40;1.00
9167;DHT22;4618;48.818;9.088;2023-04-01T01:48:03;8.30;1.00
9167;DHT22;4618;48.818;9.088;2023-04-01T01:50:30;8.20;99.90
9167;DHT22;4618;48.818;9.088;2023-04-01T01:53:07;8.10;99.90
9167;DHT22;4618;48.818;9.088;2023-04-01T01:55:35;8.10;99.90
9167;DHT22;4618;48.818;9.088;2023-04-01T01:58:31;8.00;99.90
9167;DHT22;4618;48.818;9.088;2023-04-01T02:00:59;8.00;99.90
9167;DHT22;4618;48.818;9.088;2023-04-01T02:03:30;8.10;99.90
9167;DHT22;4618;48.818;9.088;2023-04-01T02:05:59;8.00;1.00
9167;DHT22;4618;48.818;9.088;2023-04-01T02:08:36;8.10;99.90
9167;DHT22;4618;48.818;9.088;2023-04-01T02:11:08;8.10;99.90
9167;DHT22;4618;48.818;9.088;2023-04-01T02:16:20;8.10;22.00
9167;DHT22;4618;48.818;9.088;2023-04-01T02:18:50;8.00;99.90
9167;DHT22;4618;48.818;9.088;2023-04-01T02:21:20;8.00;99.90
9167;DHT22;4618;48.818;9.088;2023-04-01T02:23:47;7.90;99.90
9167;DHT22;4618;48.818;9.088;2023-04-01T02:26:14;7.90;99.90
9167;DHT22;4618;48.818;9.088;2023-04-01T02:28:41;7.90;99.90
9167;DHT22;4618;48.818;9.088;2023-04-01T02:31:10;7.90;99.90
9167;DHT22;4618;48.818;9.088;2023-04-01T02:33:37;7.90;50.10
9167;DHT22;4618;48.818;9.088;2023-04-01T02:36:04;7.80;99.90
9167;DHT22;4618;48.818;9.088;2023-04-01T02:38:30;7.90;1.00
9167;DHT22;4618;48.818;9.088;2023-04-01T02:40:58;7.90;1.00
9167;DHT22;4618;48.818;9.088;2023-04-01T02:43:24;8.00;1.00
9167;DHT22;4618;48.818;9.088;2023-04-01T02:45:50;8.00;1.00
9167;DHT22;4618;48.818;9.088;2023-04-01T02:48:15;8.00;1.00
9167;DHT22;4618;48.818;9.088;2023-04-01T02:50:41;8.00;1.00
9167;DHT22;4618;48.818;9.088;2023-04-01T02:53:06;7.90;1.00
9167;DHT22;4618;48.818;9.088;2023-04-01T02:55:33;8.00;99.90
9167;DHT22;4618;48.818;9.088;2023-04-01T02:57:59;8.00;99.90
9167;DHT22;4618;48.818;9.088;2023-04-01T03:00:25;8.00;99.90
9167;DHT22;4618;48.818;9.088;2023-04-01T03:02:51;8.00;99.90
9167;DHT22;4618;48.818;9.088;2023-04-01T03:05:17;8.00;57.70
9167;DHT22;4618;48.818;9.088;2023-04-01T03:07:43;8.00;97.30
9167;DHT22;4618;48.818;9.088;2023-04-01T03:10:09;8.00;7.70
9167;DHT22;4618;48.818;9.088;2023-04-01T03:12:35;8.10;1.00
9167;DHT22;4618;48.818;9.088;2023-04-01T03:15:01;8.10;1.00
9167;DHT22;4618;48.818;9.088;2023-04-01T03:17:26;8.00;22.90
9167;DHT22;4618;48.818;9.088;2023-04-01T03:19:52;8.00;1.00
9167;DHT22;4618;48.818;9.088;2023-04-01T03:22:18;8.10;1.00
9167;DHT22;4618;48.818;9.088;2023-04-01T03:24:47;8.00;1.00
9167;DHT22;4618;48.818;9.088;2023-04-01T03:27:12;7.90;1.00
9167;DHT22;4618;48.818;9.088;2023-04-01T03:29:38;7.90;16.50
9167;DHT22;4618;48.818;9.088;2023-04-01T03:32:04;7.90;1.00
9167;DHT22;4618;48.818;9.088;2023-04-01T03:34:30;7.90;1.00
9167;DHT22;4618;48.818;9.088;2023-04-01T03:36:55;7.90;14.00
9167;DHT22;4618;48.818;9.088;2023-04-01T03:39:21;7.90;1.00
9167;DHT22;4618;48.818;9.088;2023-04-01T03:41:47;8.00;1.00
9167;DHT22;4618;48.818;9.088;2023-04-01T03:44:13;7.90;19.20
9167;DHT22;4618;48.818;9.088;2023-04-01T03:46:39;7.80;1.00
9167;DHT22;4618;48.818;9.088;2023-04-01T03:49:09;7.90;28.80
9167;DHT22;4618;48.818;9.088;2023-04-01T03:51:39;7.80;1.00
9167;DHT22;4618;48.818;9.088;2023-04-01T03:54:05;7.90;1.00
9167;DHT22;4618;48.818;9.088;2023-04-01T03:56:31;7.70;1.00
9167;DHT22;4618;48.818;9.088;2023-04-01T03:58:58;7.80;1.00
9167;DHT22;4618;48.818;9.088;2023-04-01T04:01:23;7.90;1.00
9167;DHT22;4618;48.818;9.088;2023-04-01T04:03:49;7.80;1.00
9167;DHT22;4618;48.818;9.088;2023-04-01T04:06:17;7.80;1.00
9167;DHT22;4618;48.818;9.088;2023-04-01T04:08:43;7.90;1.00
9167;DHT22;4618;48.818;9.088;2023-04-01T04:11:10;7.90;1.00
9167;DHT22;4618;48.818;9.088;2023-04-01T04:13:35;7.90;1.00
9167;DHT22;4618;48.818;9.088;2023-04-01T04:16:02;8.10;99.90
9167;DHT22;4618;48.818;9.088;2023-04-01T04:18:28;8.10;99.90
9167;DHT22;4618;48.818;9.088;2023-04-01T04:20:53;8.10;99.90
9167;DHT22;4618;48.818;9.088;2023-04-01T04:23:19;8.10;99.90
9167;DHT22;4618;48.818;9.088;2023-04-01T04:28:20;8.00;99.90
9167;DHT22;4618;48.818;9.088;2023-04-01T04:30:45;7.90;99.90
9167;DHT22;4618;48.818;9.088;2023-04-01T04:33:11;7.80;1.00
9167;DHT22;4618;48.818;9.088;2023-04-01T04:35:36;7.90;99.90
9167;DHT22;4618;48.818;9.088;2023-04-01T04:38:02;7.90;99.90
9167;DHT22;4618;48.818;9.088;2023-04-01T04:40:27;7.80;1.00
9167;DHT22;4618;48.818;9.088;2023-04-01T04:42:53;7.80;1.00
9167;DHT22;4618;48.818;9.088;2023-04-01T04:45:19;7.80;1.00
9167;DHT22;4618;48.818;9.088;2023-04-01T04:47:44;7.80;1.00
9167;DHT22;4618;48.818;9.088;2023-04-01T04:50:10;7.70;1.00
9167;DHT22;4618;48.818;9.088;2023-04-01T04:52:37;7.70;1.00
9167;DHT22;4618;48.818;9.088;2023-04-01T04:55:02;7.70;1.00
9167;DHT22;4618;48.818;9.088;2023-04-01T04:57:28;7.70;1.00
9167;DHT22;4618;48.818;9.088;2023-04-01T04:59:53;7.70;1.00
9167;DHT22;4618;48.818;9.088;2023-04-01T05:02:19;7.80;1.00
9167;DHT22;4618;48.818;9.088;2023-04-01T05:04:44;7.60;81.90
9167;DHT22;4618;48.818;9.088;2023-04-01T05:07:10;7.60;99.90
9167;DHT22;4618;48.818;9.088;2023-04-01T05:09:36;7.60;99.90
9167;DHT22;4618;48.818;9.088;2023-04-01T05:12:02;7.60;99.90
9167;DHT22;4618;48.818;9.088;2023-04-01T05:14:27;7.60;99.90
9167;DHT22;4618;48.818;9.088;2023-04-01T05:16:53;7.50;99.90
9167;DHT22;4618;48.818;9.088;2023-04-01T05:19:20;7.50;99.90
9167;DHT22;4618;48.818;9.088;2023-04-01T05:21:45;7.60;99.90
9167;DHT22;4618;48.818;9.088;2023-04-01T05:24:11;7.50;99.90
9167;DHT22;4618;48.818;9.088;2023-04-01T05:26:36;7.50;99.90
9167;DHT22;4618;48.818;9.088;2023-04-01T05:29:03;7.60;99.90
9167;DHT22;4618;48.818;9.088;2023-04-01T05:31:29;7.80;1.00
9167;DHT22;4618;48.818;9.088;2023-04-01T05:33:55;7.90;1.00
9167;DHT22;4618;48.818;9.088;2023-04-01T05:36:21;8.00;99.90
9167;DHT22;4618;48.818;9.088;2023-04-01T05:38:47;8.10;99.90
9167;DHT22;4618;48.818;9.088;2023-04-01T05:41:14;8.10;1.00
9167;DHT22;4618;48.818;9.088;2023-04-01T05:43:40;8.10;99.90
9167;DHT22;4618;48.818;9.088;2023-04-01T05:46:06;8.00;1.00
9167;DHT22;4618;48.818;9.088;2023-04-01T05:48:35;8.20;99.90
9167;DHT22;4618;48.818;9.088;2023-04-01T05:51:01;8.20;99.90
9167;DHT22;4618;48.818;9.088;2023-04-01T05:53:27;8.20;99.90
9167;DHT22;4618;48.818;9.088;2023-04-01T05:55:52;8.20;99.90
9167;DHT22;4618;48.818;9.088;2023-04-01T05:58:18;8.30;99.90
9167;DHT22;4618;48.818;9.088;2023-04-01T06:00:44;8.40;99.90
9167;DHT22;4618;48.818;9.088;2023-04-01T06:03:09;8.50;1.00
9167;DHT22;4618;48.818;9.088;2023-04-01T06:05:42;8.50;1.00
9167;DHT22;4618;48.818;9.088;2023-04-01T06:08:14;8.60;1.00
9167;DHT22;4618;48.818;9.088;2023-04-01T06:19:22;8.80;99.90
9167;DHT22;4618;48.818;9.088;2023-04-01T06:35:46;9.10;1.00
9167;DHT22;4618;48.818;9.088;2023-04-01T06:54:44;9.10;99.90
9167;DHT22;4618;48.818;9.088;2023-04-01T06:57:34;9.10;99.90
9167;DHT22;4618;48.818;9.088;2023-04-01T07:00:04;9.10;1.00
9167;DHT22;4618;48.818;9.088;2023-04-01T07:02:50;9.10;99.90
9167;DHT22;4618;48.818;9.088;2023-04-01T07:05:20;9.10;99.90
9167;DHT22;4618;48.818;9.088;2023-04-01T07:07:50;9.10;99.90
9167;DHT22;4618;48.818;9.088;2023-04-01T07:16:11;9.10;99.90
9167;DHT22;4618;48.818;9.088;2023-04-01T07:18:44;9.10;99.90
9167;DHT22;4618;48.818;9.088;2023-04-01T07:21:41;9.10;99.90
9167;DHT22;4618;48.818;9.088;2023-04-01T07:24:10;9.10;99.90
9167;DHT22;4618;48.818;9.088;2023-04-01T07:26:37;9.10;99.90
9167;DHT22;4618;48.818;9.088;2023-04-01T07:29:09;9.10;99.90
9167;DHT22;4618;48.818;9.088;2023-04-01T07:35:09;9.10;99.90
9167;DHT22;4618;48.818;9.088;2023-04-01T07:51:03;9.30;99.90
9167;DHT22;4618;48.818;9.088;2023-04-01T07:56:11;9.50;99.90
9167;DHT22;4618;48.818;9.088;2023-04-01T08:01:40;9.60;99.90
9167;DHT22;4618;48.818;9.088;2023-04-01T08:07:17;9.60;99.90
9167;DHT22;4618;48.818;9.088;2023-04-01T08:09:54;9.60;99.90
9167;DHT22;4618;48.818;9.088;2023-04-01T08:15:25;9.60;99.90
9167;DHT22;4618;48.818;9.088;2023-04-01T08:18:17;9.70;99.90
9167;DHT22;4618;48.818;9.088;2023-04-01T08:20:56;9.60;99.90
9167;DHT22;4618;48.818;9.088;2023-04-01T08:23:44;9.70;99.90
9167;DHT22;4618;48.818;9.088;2023-04-01T08:26:30;9.80;99.90
9167;DHT22;4618;48.818;9.088;2023-04-01T08:29:23;9.70;99.90
9167;DHT22;4618;48.818;9.088;2023-04-01T08:34:25;9.20;99.90
9167;DHT22;4618;48.818;9.088;2023-04-01T08:37:23;8.90;99.90
9167;DHT22;4618;48.818;9.088;2023-04-01T08:39:55;8.80;1.00
9167;DHT22;4618;48.818;9.088;2023-04-01T08:42:42;8.60;99.90
9167;DHT22;4618;48.818;9.088;2023-04-01T08:45:35;8.50;1.00
9167;DHT22;4618;48.818;9.088;2023-04-01T08:56:47;8.40;99.90
9167;DHT22;4618;48.818;9.088;2023-04-01T09:04:41;8.50;98.40
9167;DHT22;4618;48.818;9.088;2023-04-01T09:15:49;9.10;99.90
9167;DHT22;4618;48.818;9.088;2023-04-01T09:21:22;9.40;99.90
9167;DHT22;4618;48.818;9.088;2023-04-01T09:26:42;9.90;1.00
9167;DHT22;4618;48.818;9.088;2023-04-01T09:32:25;10.30;1.00
9167;DHT22;4618;48.818;9.088;2023-04-01T09:35:23;9.90;99.90
9167;DHT22;4618;48.818;9.088;2023-04-01T09:40:54;9.40;90.70
9167;DHT22;4618;48.818;9.088;2023-04-01T09:43:23;9.20;99.90
9167;DHT22;4618;48.818;9.088;2023-04-01T09:51:55;9.20;1.00
9167;DHT22;4618;48.818;9.088;2023-04-01T09:59:58;9.70;1.00
9167;DHT22;4618;48.818;9.088;2023-04-01T10:05:36;9.90;99.90
9167;DHT22;4618;48.818;9.088;2023-04-01T10:22:22;11.00;1.00
9167;DHT22;4618;48.818;9.088;2023-04-01T10:42:23;10.10;20.50
9167;DHT22;4618;48.818;9.088;2023-04-01T10:48:14;10.40;1.00
9167;DHT22;4618;48.818;9.088;2023-04-01T10:53:42;10.30;1.00
9167;DHT22;4618;48.818;9.088;2023-04-01T11:15:39;12.10;99.90
9167;DHT22;4618;48.818;9.088;2023-04-01T11:23:49;12.30;99.90
9167;DHT22;4618;48.818;9.088;2023-04-01T11:29:41;11.70;99.90
9167;DHT22;4618;48.818;9.088;2023-04-01T11:38:00;12.30;99.90
9167;DHT22;4618;48.818;9.088;2023-04-01T11:45:37;11.90;99.90
9167;DHT22;4618;48.818;9.088;2023-04-01T11:58:57;10.90;1.00
9167;DHT22;4618;48.818;9.088;2023-04-01T12:07:03;11.10;1.00
9167;DHT22;4618;48.818;9.088;2023-04-01T12:14:39;10.50;99.90
9167;DHT22;4618;48.818;9.088;2023-04-01T12:19:46;10.30;1.00
9167;DHT22;4618;48.818;9.088;2023-04-01T12:24:45;10.50;99.90
9167;DHT22;4618;48.818;9.088;2023-04-01T12:32:34;10.80;14.40
9167;DHT22;4618;48.818;9.088;2023-04-01T12:35:10;11.10;1.00
9167;DHT22;4618;48.818;9.088;2023-04-01T12:43:14;11.90;99.90
9167;DHT22;4618;48.818;9.088;2023-04-01T12:48:27;11.50;99.90
9167;DHT22;4618;48.818;9.088;2023-04-01T13:16:21;10.90;1.00
9167;DHT22;4618;48.818;9.088;2023-04-01T13:26:29;11.10;1.00
9167;DHT22;4618;48.818;9.088;2023-04-01T13:33:58;11.10;1.00
9167;DHT22;4618;48.818;9.088;2023-04-01T13:36:33;11.30;1.00
9167;DHT22;4618;48.818;9.088;2023-04-01T13:39:12;11.40;99.90
9167;DHT22;4618;48.818;9.088;2023-04-01T13:44:31;11.20;99.90
9167;DHT22;4618;48.818;9.088;2023-04-01T13:47:03;11.30;1.00
9167;DHT22;4618;48.818;9.088;2023-04-01T13:57:11;11.30;99.90
9167;DHT22;4618;48.818;9.088;2023-04-01T14:02:29;11.00;1.00
9167;DHT22;4618;48.818;9.088;2023-04-01T14:12:40;10.70;1.00
9167;DHT22;4618;48.818;9.088;2023-04-01T14:18:09;10.80;99.90
9167;DHT22;4618;48.818;9.088;2023-04-01T14:23:27;10.70;99.90
9167;DHT22;4618;48.818;9.088;2023-04-01T14:26:04;10.60;99.90
9167;DHT22;4618;48.818;9.088;2023-04-01T14:33:43;10.10;1.00
9167;DHT22;4618;48.818;9.088;2023-04-01T14:49:48;10.60;1.00
9167;DHT22;4618;48.818;9.088;2023-04-01T14:52:30;10.70;1.00
9167;DHT22;4618;48.818;9.088;2023-04-01T14:54:57;10.90;1.00
9167;DHT22;4618;48.818;9.088;2023-04-01T14:57:24;10.90;1.00
9167;DHT22;4618;48.818;9.088;2023-04-01T15:00:00;10.90;1.00
9167;DHT22;4618;48.818;9.088;2023-04-01T15:02:35;10.90;1.00
9167;DHT22;4618;48.818;9.088;2023-04-01T15:05:24;10.90;1.00
9167;DHT22;4618;48.818;9.088;2023-04-01T15:10:52;10.80;1.00
9167;DHT22;4618;48.818;9.088;2023-04-01T15:13:29;10.70;1.00
9167;DHT22;4618;48.818;9.088;2023-04-01T15:19:14;10.70;1.00
9167;DHT22;4618;48.818;9.088;2023-04-01T15:21:54;10.70;1.00
9167;DHT22;4618;48.818;9.088;2023-04-01T15:24:25;10.80;1.00
9167;DHT22;4618;48.818;9.088;2023-04-01T15:32:48;10.90;1.00
9167;DHT22;4618;48.818;9.088;2023-04-01T15:43:41;10.70;1.00
9167;DHT22;4618;48.818;9.088;2023-04-01T15:46:21;10.70;44.40
9167;DHT22;4618;48.818;9.088;2023-04-01T15:55:08;10.80;1.00
9167;DHT22;4618;48.818;9.088;2023-04-01T15:58:15;10.80;1.00
9167;DHT22;4618;48.818;9.088;2023-04-01T16:06:38;10.70;1.00
9167;DHT22;4618;48.818;9.088;2023-04-01T16:22:49;10.40;99.90
9167;DHT22;4618;48.818;9.088;2023-04-01T16:27:58;10.40;1.00
9167;DHT22;4618;48.818;9.088;2023-04-01T16:30:35;10.40;1.00
9167;DHT22;4618;48.818;9.088;2023-04-01T16:33:03;10.30;1.00
9167;DHT22;4618;48.818;9.088;2023-04-01T16:43:48;10.30;1.00
9167;DHT22;4618;48.818;9.088;2023-04-01T16:51:26;10.30;27.00
9167;DHT22;4618;48.818;9.088;2023-04-01T16:54:16;10.20;76.70
9167;DHT22;4618;48.818;9.088;2023-04-01T16:56:45;10.20;42.90
9167;DHT22;4618;48.818;9.088;2023-04-01T17:01:45;10.30;99.90
9167;DHT22;4618;48.818;9.088;2023-04-01T17:06:53;10.30;99.90
9167;DHT22;4618;48.818;9.088;2023-04-01T17:12:04;10.30;99.90
9167;DHT22;4618;48.818;9.088;2023-04-01T17:14:52;10.30;99.90
9167;DHT22;4618;48.818;9.088;2023-04-01T17:23:04;10.30;99.90
9167;DHT22;4618;48.818;9.088;2023-04-01T17:25:37;10.20;99.90
9167;DHT22;4618;48.818;9.088;2023-04-01T17:30:52;10.30;99.90
9167;DHT22;4618;48.818;9.088;2023-04-01T17:33:27;10.20;99.90
9167;DHT22;4618;48.818;9.088;2023-04-01T17:35:57;10.30;99.90
9167;DHT22;4618;48.818;9.088;2023-04-01T17:38:28;10.30;99.90
9167;DHT22;4618;48.818;9.088;2023-04-01T17:43:47;10.30;99.90
9167;DHT22;4618;48.818;9.088;2023-04-01T17:51:23;10.00;99.90
9167;DHT22;4618;48.818;9.088;2023-04-01T18:01:59;9.40;1.00
9167;DHT22;4618;48.818;9.088;2023-04-01T18:04:37;9.30;1.00
9167;DHT22;4618;48.818;9.088;2023-04-01T18:14:39;8.80;99.90
9167;DHT22;4618;48.818;9.088;2023-04-01T18:22:23;8.80;4.60
9167;DHT22;4618;48.818;9.088;2023-04-01T18:24:56;8.80;99.90
9167;DHT22;4618;48.818;9.088;2023-04-01T18:27:43;8.80;99.90
9167;DHT22;4618;48.818;9.088;2023-04-01T18:30:25;8.80;99.90
9167;DHT22;4618;48.818;9.088;2023-04-01T18:38:12;8.80;1.00
9167;DHT22;4618;48.818;9.088;2023-04-01T18:40:51;8.90;1.00
9167;DHT22;4618;48.818;9.088;2023-04-01T18:45:53;8.80;99.90
9167;DHT22;4618;48.818;9.088;2023-04-01T18:50:57;8.70;1.00
9167;DHT22;4618;48.818;9.088;2023-04-01T18:55:55;8.70;1.00
9167;DHT22;4618;48.818;9.088;2023-04-01T18:58:22;8.70;1.00
9167;DHT22;4618;48.818;9.088;2023-04-01T19:05:59;8.50;1.00
9167;DHT22;4618;48.818;9.088;2023-04-01T19:08:27;8.50;1.00
9167;DHT22;4618;48.818;9.088;2023-04-01T19:21:09;8.20;99.90
9167;DHT22;4618;48.818;9.088;2023-04-01T19:23:50;8.20;99.90
9167;DHT22;4618;48.818;9.088;2023-04-01T19:26:23;8.20;1.00
9167;DHT22;4618;48.818;9.088;2023-04-01T19:29:04;8.20;1.00
9167;DHT22;4618;48.818;9.088;2023-04-01T19:31:40;8.20;1.00
9167;DHT22;4618;48.818;9.088;2023-04-01T19:34:26;8.20;1.00
9167;DHT22;4618;48.818;9.088;2023-04-01T19:36:59;8.10;99.90
9167;DHT22;4618;48.818;9.088;2023-04-01T19:39:49;8.20;99.90
9167;DHT22;4618;48.818;9.088;2023-04-01T19:42:29;8.10;99.90
9167;DHT22;4618;48.818;9.088;2023-04-01T19:56:12;8.10;99.90
9167;DHT22;4618;48.818;9.088;2023-04-01T19:59:43;8.10;99.90
9167;DHT22;4618;48.818;9.088;2023-04-01T20:04:41;8.20;1.00
9167;DHT22;4618;48.818;9.088;2023-04-01T20:07:27;8.20;1.00
9167;DHT22;4618;48.818;9.088;2023-04-01T20:10:36;8.30;99.90
9167;DHT22;4618;48.818;9.088;2023-04-01T20:16:10;8.30;1.00
9167;DHT22;4618;48.818;9.088;2023-04-01T20:18:47;8.40;1.00
9167;DHT22;4618;48.818;9.088;2023-04-01T20:23:43;8.50;1.00
9167;DHT22;4618;48.818;9.088;2023-04-01T20:26:12;8.60;99.90
9167;DHT22;4618;48.818;9.088;2023-04-01T20:28:44;8.60;99.90
9167;DHT22;4618;48.818;9.088;2023-04-01T20:31:34;8.60;99.90
9167;DHT22;4618;48.818;9.088;2023-04-01T20:34:19;8.60;99.90
9167;DHT22;4618;48.818;9.088;2023-04-01T20:37:10;8.60;99.90
9167;DHT22;4618;48.818;9.088;2023-04-01T20:51:03;8.60;99.90
9167;DHT22;4618;48.818;9.088;2023-04-01T20:53:36;8.60;99.90
9167;DHT22;4618;48.818;9.088;2023-04-01T20:59:16;8.60;99.90
9167;DHT22;4618;48.818;9.088;2023-04-01T21:04:34;8.60;99.90
9167;DHT22;4618;48.818;9.088;2023-04-01T21:07:33;8.50;99.90
9167;DHT22;4618;48.818;9.088;2023-04-01T21:17:56;8.70;99.90
9167;DHT22;4618;48.818;9.088;2023-04-01T21:23:21;8.70;99.90
9167;DHT22;4618;48.818;9.088;2023-04-01T21:26:11;8.60;99.90
9167;DHT22;4618;48.818;9.088;2023-04-01T21:31:39;8.60;1.00
9167;DHT22;4618;48.818;9.088;2023-04-01T21:36:59;8.40;1.00
9167;DHT22;4618;48.818;9.088;2023-04-01T21:39:36;8.40;26.60
9167;DHT22;4618;48.818;9.088;2023-04-01T21:42:15;8.40;99.90
9167;DHT22;4618;48.818;9.088;2023-04-01T21:47:33;8.30;99.90
9167;DHT22;4618;48.818;9.088;2023-04-01T21:55:22;8.40;99.90
9167;DHT22;4618;48.818;9.088;2023-04-01T22:00:48;8.40;1.00
9167;DHT22;4618;48.818;9.088;2023-04-01T22:06:00;8.30;1.00
9167;DHT22;4618;48.818;9.088;2023-04-01T22:08:35;8.30;1.00
9167;DHT22;4618;48.818;9.088;2023-04-01T22:16:05;8.30;1.00
9167;DHT22;4618;48.818;9.088;2023-04-01T22:21:07;8.20;1.00
9167;DHT22;4618;48.818;9.088;2023-04-01T22:23:37;8.30;99.90
9167;DHT22;4618;48.818;9.088;2023-04-01T22:26:09;8.30;99.90
9167;DHT22;4618;48.818;9.088;2023-04-01T22:28:47;8.40;99.90
9167;DHT22;4618;48.818;9.088;2023-04-01T22:31:17;8.40;99.90
9167;DHT22;4618;48.818;9.088;2023-04-01T22:34:05;8.40;99.90
9167;DHT22;4618;48.818;9.088;2023-04-01T22:41:53;8.30;99.90
9167;DHT22;4618;48.818;9.088;2023-04-01T22:49:59;8.30;99.90
9167;DHT22;4618;48.818;9.088;2023-04-01T22:52:31;8.20;99.90
9167;DHT22;4618;48.818;9.088;2023-04-01T22:55:00;8.20;99.90
9167;DHT22;4618;48.818;9.088;2023-04-01T22:57:35;8.20;99.90
9167;DHT22;4618;48.818;9.088;2023-04-01T23:00:07;8.20;99.90
9167;DHT22;4618;48.818;9.088;2023-04-01T23:02:36;8.20;99.90
9167;DHT22;4618;48.818;9.088;2023-04-01T23:05:04;8.10;1.00
9167;DHT22;4618;48.818;9.088;2023-04-01T23:07:45;8.00;1.00
9167;DHT22;4618;48.818;9.088;2023-04-01T23:10:22;8.10;1.00
9167;DHT22;4618;48.818;9.088;2023-04-01T23:12:51;8.10;1.00
9167;DHT22;4618;48.818;9.088;2023-04-01T23:15:17;8.10;99.90
9167;DHT22;4618;48.818;9.088;2023-04-01T23:17:46;8.10;99.90
9167;DHT22;4618;48.818;9.088;2023-04-01T23:20:18;8.10;99.90
9167;DHT22;4618;48.818;9.088;2023-04-01T23:23:02;8.10;99.90
9167;DHT22;4618;48.818;9.088;2023-04-01T23:30:46;8.00;1.00
9167;DHT22;4618;48.818;9.088;2023-04-01T23:35:50;8.10;1.00
9167;DHT22;4618;48.818;9.088;2023-04-01T23:38:17;8.10;1.00
9167;DHT22;4618;48.818;9.088;2023-04-01T23:40:43;8.00;1.00
9167;DHT22;4618;48.818;9.088;2023-04-01T23:43:17;8.00;1.00
9167;DHT22;4618;48.818;9.088;2023-04-01T23:45:47;8.00;1.00
9167;DHT22;4618;48.818;9.088;2023-04-01T23:48:13;7.90;1.00
9167;DHT22;4618;48.818;9.088;2023-04-01T23:50:41;7.90;1.00
9167;DHT22;4618;48.818;9.088;2023-04-01T23:53:19;7.80;99.90
9167;DHT22;4618;48.818;9.088;2023-04-01T23:55:46;7.80;99.90
9167;DHT22;4618;48.818;9.088;2023-04-01T23:58:54;7.80;99.90
